createdAt,value
2023-01-26T00:00:02.341Z,10.40
2023-01-26T00:02:32.292Z,8.75
2023-01-26T00:05:02.059Z,9.00
2023-01-26T00:07:36.175Z,11.45
2023-01-26T00:10:08.680Z,9.65
2023-01-26T00:12:39.048Z,8.85
2023-01-26T00:15:07.075Z,11.43
2023-01-26T00:17:36.136Z,10.23
2023-01-26T00:20:07.129Z,9.07
2023-01-26T00:22:34.271Z,8.55
2023-01-26T00:25:01.862Z,9.35
2023-01-26T00:27:38.027Z,10.15
2023-01-26T00:30:13.093Z,6.55
2023-01-26T00:32:43.107Z,9.80
2023-01-26T00:35:14.383Z,10.23
2023-01-26T00:37:44.832Z,9.30
2023-01-26T00:40:12.436Z,10.13
2023-01-26T00:42:43.812Z,10.85
2023-01-26T00:45:11.992Z,7.85
2023-01-26T00:47:39.613Z,8.50
2023-01-26T00:50:08.021Z,7.10
2023-01-26T00:52:38.614Z,8.05
2023-01-26T00:55:06.330Z,6.60
2023-01-26T00:57:51.518Z,7.20
2023-01-26T01:00:21.851Z,7.97
2023-01-26T01:02:53.191Z,7.80
2023-01-26T01:05:29.804Z,8.52
2023-01-26T01:07:57.424Z,6.50
2023-01-26T01:10:27.709Z,8.40
2023-01-26T01:12:56.682Z,11.73
2023-01-26T01:15:25.423Z,10.50
2023-01-26T01:17:55.339Z,6.47
2023-01-26T01:20:23.952Z,10.25
2023-01-26T01:22:53.897Z,6.57
2023-01-26T01:25:24.159Z,8.30
2023-01-26T01:27:51.390Z,6.80
2023-01-26T01:30:19.002Z,7.35
2023-01-26T01:32:50.169Z,8.65
2023-01-26T01:35:17.454Z,5.65
2023-01-26T01:37:47.057Z,7.00
2023-01-26T01:40:14.727Z,10.13
2023-01-26T01:42:48.488Z,9.32
2023-01-26T01:45:35.025Z,15.52
2023-01-26T01:48:21.058Z,14.60
2023-01-26T01:50:52.274Z,21.73
2023-01-26T01:53:30.842Z,10.15
2023-01-26T01:56:05.104Z,21.45
2023-01-26T01:58:37.657Z,15.82
2023-01-26T02:01:08.018Z,18.85
2023-01-26T02:03:39.885Z,9.15
2023-01-26T02:06:13.444Z,10.48
2023-01-26T02:08:47.791Z,9.45
2023-01-26T02:11:19.790Z,10.30
2023-01-26T02:16:20.206Z,8.38
2023-01-26T02:18:50.568Z,8.30
2023-01-26T02:21:20.604Z,10.10
2023-01-26T02:24:04.895Z,9.50
2023-01-26T02:26:38.681Z,10.77
2023-01-26T02:29:10.568Z,10.68
2023-01-26T02:31:41.703Z,9.05
2023-01-26T02:34:15.228Z,11.50
2023-01-26T02:36:42.463Z,12.63
2023-01-26T02:39:21.406Z,11.57
2023-01-26T02:42:09.213Z,9.77
2023-01-26T02:44:39.538Z,13.70
2023-01-26T02:47:18.285Z,16.10
2023-01-26T02:49:53.182Z,13.65
2023-01-26T02:52:24.278Z,13.63
2023-01-26T02:55:11.196Z,14.45
2023-01-26T02:57:42.097Z,15.60
2023-01-26T03:00:31.899Z,18.15
2023-01-26T03:03:02.967Z,19.88
2023-01-26T03:05:31.818Z,17.52
2023-01-26T03:07:59.155Z,18.05
2023-01-26T03:10:29.462Z,17.75
2023-01-26T03:12:57.530Z,16.05
2023-01-26T03:15:46.537Z,22.00
2023-01-26T03:18:35.263Z,20.15
2023-01-26T03:21:32.751Z,23.92
2023-01-26T03:24:19.400Z,21.77
2023-01-26T03:27:07.316Z,22.63
2023-01-26T03:29:35.013Z,21.58
2023-01-26T03:32:04.730Z,22.95
2023-01-26T03:34:31.970Z,27.80
2023-01-26T03:37:02.017Z,22.02
2023-01-26T03:39:53.724Z,25.40
2023-01-26T03:42:39.838Z,26.98
2023-01-26T03:45:36.451Z,31.70
2023-01-26T03:48:27.517Z,24.10
2023-01-26T03:51:13.487Z,29.42
2023-01-26T03:54:01.743Z,33.75
2023-01-26T03:56:35.103Z,27.08
2023-01-26T03:59:12.511Z,31.00
2023-01-26T04:02:18.595Z,32.45
2023-01-26T04:05:04.287Z,31.17
2023-01-26T04:07:53.109Z,33.25
2023-01-26T04:10:20.638Z,35.28
2023-01-26T04:13:06.501Z,31.75
2023-01-26T04:15:52.643Z,31.70
2023-01-26T04:18:41.350Z,39.72
2023-01-26T04:21:27.082Z,34.10
2023-01-26T04:24:15.654Z,38.20
2023-01-26T04:26:44.241Z,37.88
2023-01-26T04:29:14.350Z,35.17
2023-01-26T04:31:43.978Z,36.40
2023-01-26T04:34:13.823Z,34.88
2023-01-26T04:36:42.389Z,38.15
2023-01-26T04:39:10.563Z,35.80
2023-01-26T04:41:42.910Z,36.85
2023-01-26T04:44:14.968Z,39.30
2023-01-26T04:46:44.881Z,34.28
2023-01-26T04:49:12.005Z,43.88
2023-01-26T04:51:47.317Z,38.60
2023-01-26T04:54:17.311Z,41.33
2023-01-26T04:56:47.708Z,38.00
2023-01-26T04:59:15.758Z,39.95
2023-01-26T05:01:42.893Z,37.95
2023-01-26T05:04:12.809Z,39.92
2023-01-26T05:06:42.655Z,40.38
2023-01-26T05:09:10.186Z,42.25
2023-01-26T05:11:38.068Z,39.50
2023-01-26T05:14:11.570Z,39.72
2023-01-26T05:16:38.854Z,35.72
2023-01-26T05:19:06.464Z,36.83
2023-01-26T05:21:33.940Z,39.25
2023-01-26T05:24:01.625Z,39.45
2023-01-26T05:26:34.489Z,41.97
2023-01-26T05:29:02.582Z,37.83
2023-01-26T05:31:32.698Z,37.95
2023-01-26T05:34:03.404Z,39.35
2023-01-26T05:36:34.318Z,41.08
2023-01-26T05:39:02.044Z,39.75
2023-01-26T05:41:31.486Z,37.50
2023-01-26T05:43:59.536Z,39.53
2023-01-26T05:46:32.067Z,36.35
2023-01-26T05:49:00.382Z,37.55
2023-01-26T05:51:27.902Z,40.75
2023-01-26T05:54:10.827Z,36.38
2023-01-26T05:56:38.498Z,41.80
2023-01-26T05:59:17.860Z,40.03
2023-01-26T06:01:48.972Z,40.47
2023-01-26T06:04:16.419Z,42.22
2023-01-26T06:06:46.222Z,42.22
2023-01-26T06:09:16.999Z,42.95
2023-01-26T06:11:51.908Z,41.63
2023-01-26T06:14:19.290Z,45.35
2023-01-26T06:16:47.284Z,45.20
2023-01-26T06:19:16.576Z,41.65
2023-01-26T06:21:44.156Z,46.17
2023-01-26T06:24:14.769Z,42.10
2023-01-26T06:26:53.033Z,42.22
2023-01-26T06:29:20.774Z,43.08
2023-01-26T06:31:52.169Z,43.83
2023-01-26T06:34:27.060Z,47.00
2023-01-26T06:37:21.907Z,44.15
2023-01-26T06:40:12.629Z,39.85
2023-01-26T06:42:41.751Z,41.67
2023-01-26T06:45:14.465Z,48.15
2023-01-26T06:48:15.937Z,45.60
2023-01-26T06:51:03.966Z,38.00
2023-01-26T06:53:45.956Z,43.70
2023-01-26T06:56:14.728Z,46.00
2023-01-26T06:59:09.821Z,48.55
2023-01-26T07:01:56.349Z,42.05
2023-01-26T07:04:30.482Z,49.05
2023-01-26T07:13:45.254Z,54.53
2023-01-26T07:19:50.073Z,45.53
2023-01-26T07:22:23.975Z,42.50
2023-01-26T07:25:18.500Z,44.88
2023-01-26T07:28:27.983Z,38.65
2023-01-26T07:31:27.044Z,49.10
2023-01-26T07:37:20.076Z,50.42
2023-01-26T07:39:53.288Z,47.88
2023-01-26T07:45:11.964Z,44.60
2023-01-26T07:48:02.164Z,42.05
2023-01-26T07:50:33.797Z,47.15
2023-01-26T07:53:05.427Z,46.65
2023-01-26T07:55:44.464Z,42.58
2023-01-26T07:58:15.807Z,42.13
2023-01-26T08:01:37.730Z,44.42
2023-01-26T08:04:20.335Z,40.72
2023-01-26T08:06:50.050Z,46.92
2023-01-26T08:09:46.036Z,46.72
2023-01-26T08:12:22.690Z,46.28
2023-01-26T08:14:53.069Z,45.63
2023-01-26T08:17:25.756Z,48.03
2023-01-26T08:22:44.100Z,44.10
2023-01-26T08:25:19.389Z,39.72
2023-01-26T08:28:00.731Z,48.50
2023-01-26T08:33:30.400Z,47.17
2023-01-26T08:36:04.982Z,52.90
2023-01-26T08:38:39.083Z,49.22
2023-01-26T08:41:18.990Z,40.45
2023-01-26T08:44:02.786Z,48.60
2023-01-26T08:46:55.069Z,47.67
2023-01-26T08:49:31.165Z,48.40
2023-01-26T08:51:58.471Z,42.38
2023-01-26T08:54:34.203Z,50.17
2023-01-26T08:57:16.223Z,38.53
2023-01-26T09:00:25.848Z,41.38
2023-01-26T09:03:07.159Z,38.08
2023-01-26T09:08:25.944Z,40.80
2023-01-26T09:11:02.170Z,44.13
2023-01-26T09:13:45.584Z,44.95
2023-01-26T09:16:43.420Z,45.58
2023-01-26T09:19:19.085Z,44.22
2023-01-26T09:23:17.525Z,46.30
2023-01-26T09:25:43.022Z,42.63
2023-01-26T09:28:18.723Z,38.25
2023-01-26T09:30:51.716Z,38.22
2023-01-26T09:33:37.457Z,38.58
2023-01-26T09:36:19.408Z,42.38
2023-01-26T09:39:16.380Z,33.78
2023-01-26T09:41:58.383Z,35.70
2023-01-26T09:44:32.124Z,42.60
2023-01-26T09:47:50.898Z,47.72
2023-01-26T09:50:36.112Z,49.65
2023-01-26T09:53:19.383Z,38.22
2023-01-26T09:55:53.153Z,47.70
2023-01-26T09:58:43.094Z,43.65
2023-01-26T10:02:17.704Z,49.50
2023-01-26T10:06:34.510Z,40.63
2023-01-26T10:09:30.961Z,51.33
2023-01-26T10:12:29.330Z,41.83
2023-01-26T10:15:53.980Z,40.33
2023-01-26T10:19:10.653Z,38.30
2023-01-26T10:22:35.882Z,42.08
2023-01-26T10:28:40.022Z,44.33
2023-01-26T10:31:35.720Z,37.90
2023-01-26T10:34:24.190Z,37.78
2023-01-26T10:36:58.990Z,44.35
2023-01-26T10:39:26.720Z,41.38
2023-01-26T10:42:03.993Z,40.70
2023-01-26T10:44:39.876Z,42.33
2023-01-26T10:47:26.567Z,59.65
2023-01-26T10:50:37.116Z,48.92
2023-01-26T10:53:29.821Z,43.25
2023-01-26T10:56:13.271Z,44.08
2023-01-26T10:59:07.755Z,39.03
2023-01-26T11:02:02.484Z,40.20
2023-01-26T11:04:48.102Z,45.58
2023-01-26T11:07:48.269Z,36.92
2023-01-26T11:10:30.440Z,40.65
2023-01-26T11:14:33.117Z,48.25
2023-01-26T11:17:38.397Z,39.97
2023-01-26T11:21:17.514Z,47.40
2023-01-26T11:24:19.659Z,41.63
2023-01-26T11:27:41.224Z,44.97
2023-01-26T11:30:50.481Z,36.63
2023-01-26T11:33:35.255Z,41.03
2023-01-26T11:37:08.136Z,34.15
2023-01-26T11:40:42.657Z,50.00
2023-01-26T11:43:24.542Z,43.28
2023-01-26T11:47:11.936Z,43.38
2023-01-26T11:50:05.643Z,46.80
2023-01-26T11:53:13.296Z,51.22
2023-01-26T11:55:47.451Z,38.15
2023-01-26T11:58:36.791Z,39.75
2023-01-26T12:01:31.309Z,49.85
2023-01-26T12:04:17.308Z,46.42
2023-01-26T12:07:18.813Z,45.78
2023-01-26T12:09:53.093Z,49.65
2023-01-26T12:13:25.532Z,54.08
2023-01-26T12:16:10.048Z,43.78
2023-01-26T12:19:10.813Z,45.03
2023-01-26T12:21:46.867Z,42.83
2023-01-26T12:25:00.918Z,47.25
2023-01-26T12:28:10.127Z,38.85
2023-01-26T12:30:48.584Z,36.33
2023-01-26T12:33:26.123Z,42.65
2023-01-26T12:36:23.474Z,53.40
2023-01-26T12:39:20.114Z,38.05
2023-01-26T12:42:29.667Z,48.58
2023-01-26T12:45:04.598Z,36.58
2023-01-26T12:47:49.076Z,40.17
2023-01-26T12:50:23.619Z,45.97
2023-01-26T12:53:21.226Z,47.03
2023-01-26T12:55:59.566Z,38.30
2023-01-26T12:58:43.094Z,36.05
2023-01-26T13:01:19.412Z,40.85
2023-01-26T13:04:02.151Z,36.40
2023-01-26T13:06:33.149Z,41.53
2023-01-26T13:09:26.640Z,45.78
2023-01-26T13:12:03.186Z,40.78
2023-01-26T13:14:44.556Z,39.35
2023-01-26T13:17:21.103Z,48.63
2023-01-26T13:20:02.400Z,40.53
2023-01-26T13:22:38.306Z,35.78
2023-01-26T13:25:22.534Z,43.20
2023-01-26T13:27:57.862Z,37.90
2023-01-26T13:30:31.115Z,37.10
2023-01-26T13:33:30.798Z,36.28
2023-01-26T13:35:59.846Z,39.25
2023-01-26T13:38:45.265Z,37.95
2023-01-26T13:41:21.614Z,35.83
2023-01-26T13:44:04.950Z,40.30
2023-01-26T13:46:51.738Z,36.40
2023-01-26T13:49:43.003Z,34.88
2023-01-26T13:52:29.323Z,39.03
2023-01-26T13:54:58.015Z,33.47
2023-01-26T13:57:30.169Z,33.78
2023-01-26T14:02:43.813Z,33.17
2023-01-26T14:05:37.793Z,47.22
2023-01-26T14:08:16.848Z,38.00
2023-01-26T14:10:46.701Z,36.55
2023-01-26T14:13:23.037Z,36.72
2023-01-26T14:16:38.492Z,36.30
2023-01-26T14:19:29.201Z,36.30
2023-01-26T14:22:13.242Z,38.83
2023-01-26T14:24:48.325Z,41.70
2023-01-26T14:27:34.231Z,31.13
2023-01-26T14:30:25.119Z,32.95
2023-01-26T14:33:51.913Z,31.70
2023-01-26T14:36:21.072Z,35.33
2023-01-26T14:39:04.673Z,37.38
2023-01-26T14:41:38.128Z,34.80
2023-01-26T14:44:07.802Z,35.72
2023-01-26T14:47:16.189Z,37.35
2023-01-26T14:50:35.493Z,32.38
2023-01-26T14:53:07.849Z,33.10
2023-01-26T14:55:36.823Z,36.47
2023-01-26T14:58:35.449Z,33.25
2023-01-26T15:01:03.409Z,37.40
2023-01-26T15:03:36.790Z,42.72
2023-01-26T15:06:24.811Z,39.03
2023-01-26T15:09:39.999Z,34.28
2023-01-26T15:12:25.378Z,35.88
2023-01-26T15:15:00.767Z,38.35
2023-01-26T15:17:55.600Z,35.95
2023-01-26T15:20:23.211Z,40.58
2023-01-26T15:22:56.398Z,32.95
2023-01-26T15:25:39.637Z,38.95
2023-01-26T15:28:26.484Z,33.42
2023-01-26T15:30:56.833Z,36.97
2023-01-26T15:33:58.748Z,43.03
2023-01-26T15:36:32.891Z,42.95
2023-01-26T15:39:25.183Z,37.88
2023-01-26T15:42:25.224Z,34.50
2023-01-26T15:45:00.319Z,35.25
2023-01-26T15:47:28.234Z,31.67
2023-01-26T15:49:57.534Z,37.40
2023-01-26T15:52:31.811Z,34.30
2023-01-26T15:55:30.967Z,32.92
2023-01-26T15:58:05.067Z,37.22
2023-01-26T16:00:33.012Z,37.35
2023-01-26T16:03:12.961Z,37.22
2023-01-26T16:05:40.976Z,30.52
2023-01-26T16:08:20.072Z,31.65
2023-01-26T16:10:53.899Z,32.05
2023-01-26T16:13:23.808Z,35.13
2023-01-26T16:16:08.156Z,36.85
2023-01-26T16:21:33.618Z,33.97
2023-01-26T16:24:05.120Z,30.52
2023-01-26T16:26:33.568Z,34.65
2023-01-26T16:29:01.138Z,35.67
2023-01-26T16:31:32.814Z,35.60
2023-01-26T16:34:01.508Z,30.15
2023-01-26T16:36:29.863Z,36.35
2023-01-26T16:39:00.263Z,34.20
2023-01-26T16:41:32.948Z,33.45
2023-01-26T16:44:03.650Z,29.90
2023-01-26T16:46:31.592Z,34.65
2023-01-26T16:49:03.168Z,38.97
2023-01-26T16:51:32.890Z,33.78
2023-01-26T16:54:01.919Z,34.20
2023-01-26T16:56:30.449Z,35.08
2023-01-26T16:59:13.467Z,35.97
2023-01-26T17:01:42.515Z,31.83
2023-01-26T17:04:14.635Z,35.72
2023-01-26T17:06:45.378Z,35.63
2023-01-26T17:09:15.757Z,35.08
2023-01-26T17:11:43.334Z,29.02
2023-01-26T17:14:21.403Z,35.47
2023-01-26T17:16:52.221Z,36.38
2023-01-26T17:19:19.440Z,37.95
2023-01-26T17:21:52.061Z,34.67
2023-01-26T17:24:21.664Z,30.63
2023-01-26T17:26:52.096Z,33.72
2023-01-26T17:29:22.039Z,31.67
2023-01-26T17:31:49.392Z,33.55
2023-01-26T17:34:16.825Z,34.83
2023-01-26T17:36:45.996Z,40.42
2023-01-26T17:39:20.339Z,34.55
2023-01-26T17:41:50.635Z,36.42
2023-01-26T17:44:23.100Z,44.72
2023-01-26T17:46:56.931Z,40.65
2023-01-26T17:49:25.126Z,38.47
2023-01-26T17:51:52.951Z,33.15
2023-01-26T17:54:21.989Z,38.00
2023-01-26T17:56:49.865Z,39.40
2023-01-26T17:59:19.070Z,37.72
2023-01-26T18:01:46.762Z,35.70
2023-01-26T18:04:14.484Z,35.90
2023-01-26T18:06:44.305Z,33.60
2023-01-26T18:09:11.864Z,32.63
2023-01-26T18:11:43.918Z,31.63
2023-01-26T18:14:15.797Z,28.83
2023-01-26T18:16:46.172Z,25.88
2023-01-26T18:19:19.564Z,29.23
2023-01-26T18:22:01.227Z,30.63
2023-01-26T18:24:32.564Z,35.35
2023-01-26T18:27:00.081Z,30.73
2023-01-26T18:30:06.178Z,34.22
2023-01-26T18:32:23.760Z,30.98
2023-01-26T18:34:52.107Z,29.35
2023-01-26T18:37:19.617Z,25.88
2023-01-26T18:39:50.150Z,35.25
2023-01-26T18:42:18.177Z,36.03
2023-01-26T18:45:01.582Z,34.78
2023-01-26T18:47:40.503Z,40.72
2023-01-26T18:50:13.157Z,31.10
2023-01-26T18:52:49.965Z,29.77
2023-01-26T18:55:17.389Z,29.25
2023-01-26T18:57:53.160Z,32.90
2023-01-26T19:00:21.423Z,34.38
2023-01-26T19:02:52.023Z,30.27
2023-01-26T19:05:21.702Z,30.75
2023-01-26T19:07:51.123Z,27.65
2023-01-26T19:10:26.354Z,29.27
2023-01-26T19:12:53.757Z,32.28
2023-01-26T19:15:20.998Z,34.03
2023-01-26T19:17:51.107Z,37.08
2023-01-26T19:20:18.830Z,32.50
2023-01-26T19:22:54.086Z,38.30
2023-01-26T19:25:22.397Z,32.13
2023-01-26T19:27:49.783Z,37.08
2023-01-26T19:30:17.744Z,35.92
2023-01-26T19:33:06.480Z,28.90
2023-01-26T19:35:36.947Z,31.20
2023-01-26T19:38:05.487Z,39.08
2023-01-26T19:40:33.770Z,29.80
2023-01-26T19:43:01.815Z,41.65
2023-01-26T19:45:36.574Z,41.42
2023-01-26T19:48:09.831Z,40.17
2023-01-26T19:50:37.292Z,50.92
2023-01-26T19:53:07.373Z,70.45
2023-01-26T19:55:35.300Z,50.95
2023-01-26T19:58:03.581Z,30.65
2023-01-26T20:00:31.193Z,32.05
2023-01-26T20:02:58.443Z,30.73
2023-01-26T20:05:25.622Z,29.60
2023-01-26T20:07:55.508Z,27.90
2023-01-26T20:10:23.152Z,32.78
2023-01-26T20:12:50.768Z,34.33
2023-01-26T20:15:18.310Z,29.25
2023-01-26T20:17:50.447Z,27.80
2023-01-26T20:20:18.241Z,25.30
2023-01-26T20:22:47.988Z,25.85
2023-01-26T20:25:16.331Z,23.70
2023-01-26T20:27:45.940Z,29.35
2023-01-26T20:30:16.965Z,23.67
2023-01-26T20:32:44.846Z,20.90
2023-01-26T20:35:16.526Z,21.45
2023-01-26T20:37:48.268Z,20.30
2023-01-26T20:40:16.209Z,24.50
2023-01-26T20:42:52.254Z,20.63
2023-01-26T20:45:28.631Z,21.23
2023-01-26T20:47:56.709Z,19.17
2023-01-26T20:50:23.969Z,21.98
2023-01-26T20:52:53.745Z,29.30
2023-01-26T20:55:23.513Z,19.73
2023-01-26T20:57:50.742Z,18.77
2023-01-26T21:00:18.632Z,18.15
2023-01-26T21:02:50.302Z,19.50
2023-01-26T21:05:30.131Z,20.92
2023-01-26T21:07:57.788Z,20.23
2023-01-26T21:10:28.530Z,15.40
2023-01-26T21:13:02.999Z,14.43
2023-01-26T21:15:33.473Z,12.73
2023-01-26T21:18:07.468Z,12.85
2023-01-26T21:20:34.677Z,8.68
2023-01-26T21:23:07.355Z,10.52
2023-01-26T21:25:43.567Z,6.95
2023-01-26T21:28:18.825Z,10.18
2023-01-26T21:30:49.216Z,12.40
2023-01-26T21:33:16.518Z,9.27
2023-01-26T21:35:44.051Z,5.65
2023-01-26T21:38:11.313Z,8.27
2023-01-26T21:40:38.558Z,4.82
2023-01-26T21:43:08.713Z,5.32
2023-01-26T21:45:54.117Z,7.43
2023-01-26T21:48:38.241Z,4.50
2023-01-26T21:51:30.257Z,5.55
2023-01-26T21:54:03.206Z,3.38
2023-01-26T21:56:31.032Z,5.32
2023-01-26T21:59:02.963Z,5.13
2023-01-26T22:01:40.520Z,4.65
2023-01-26T22:04:20.648Z,9.70
2023-01-26T22:06:52.904Z,8.57
2023-01-26T22:09:27.086Z,7.22
2023-01-26T22:11:55.007Z,2.92
2023-01-26T22:14:31.030Z,5.40
2023-01-26T22:16:58.584Z,3.80
2023-01-26T22:19:29.566Z,4.72
2023-01-26T22:22:05.691Z,5.78
2023-01-26T22:24:38.886Z,5.97
2023-01-26T22:27:12.536Z,3.83
2023-01-26T22:29:39.837Z,4.00
2023-01-26T22:32:07.542Z,2.90
2023-01-26T22:34:34.922Z,4.35
2023-01-26T22:37:07.177Z,7.10
2023-01-26T22:39:38.652Z,6.00
2023-01-26T22:42:06.063Z,2.97
2023-01-26T22:44:36.157Z,3.35
2023-01-26T22:47:05.328Z,4.18
2023-01-26T22:49:39.800Z,3.80
2023-01-26T22:52:09.961Z,2.25
2023-01-26T22:54:39.511Z,2.75
2023-01-26T22:57:12.647Z,2.85
2023-01-26T22:59:40.272Z,3.38
2023-01-26T23:02:13.825Z,3.38
2023-01-26T23:04:46.228Z,3.63
2023-01-26T23:07:18.168Z,3.40
2023-01-26T23:09:55.818Z,4.53
2023-01-26T23:12:24.016Z,1.92
2023-01-26T23:14:51.234Z,3.72
2023-01-26T23:17:18.999Z,8.77
2023-01-26T23:19:49.936Z,14.63
2023-01-26T23:22:22.292Z,3.53
2023-01-26T23:25:16.934Z,2.63
2023-01-26T23:27:49.164Z,2.83
2023-01-26T23:30:17.246Z,4.28
2023-01-26T23:32:44.941Z,2.63
2023-01-26T23:35:17.450Z,3.45
2023-01-26T23:37:44.881Z,2.15
2023-01-26T23:40:13.400Z,2.72
2023-01-26T23:43:00.321Z,2.55
2023-01-26T23:45:28.801Z,4.38
2023-01-26T23:47:55.991Z,1.88
2023-01-26T23:50:23.193Z,5.57
2023-01-26T23:53:04.011Z,4.13
2023-01-26T23:55:33.658Z,2.38
2023-01-26T23:58:00.940Z,5.50
